Wesleyville, Pennsylvania
Current Conditions -  °F | °C
As of 11:51 PM on Saturday 22 Nov 2014 (Local Time) from KERI Reporting Station
Light Rain Light Rain  
Wind Chill: 41°   Ceiling: 4500
Heat Index: 48°   Visibility: 10mi
Dew Point: 33°   Wind: 21mph
Humidity: 56%   Direction: 200°SSW
Pressure: 30.01"   Gusts: 32mph
Location:  42.1111°N, 79.9606°W
Report Text: KERI 230451Z 20018G28KT 10SM -RA OVC045 09/01 A3001 RMK AO2 PK WND 19034/0434 RAB45 SLP169 P0000 T00890006 400941072
Loading
Personal Weather Stations






























Interactive Weather Map New forecast layout! Learn more

10-Day Weather Forecast

Advertisements
Track Severe Weather on mobile